createdAt,value
2019-05-21T00:01:47.751Z,95202.13
2019-05-21T00:04:27.816Z,95205.70
2019-05-21T00:06:50.317Z,95213.81
2019-05-21T00:09:20.761Z,95202.45
2019-05-21T00:11:51.213Z,95203.65
2019-05-21T00:14:21.699Z,95201.87
2019-05-21T00:16:52.189Z,95210.34
2019-05-21T00:19:22.716Z,95204.17
2019-05-21T00:21:53.419Z,95205.92
2019-05-21T00:24:23.869Z,95209.95
2019-05-21T00:26:54.308Z,95206.87
2019-05-21T00:30:18.726Z,95206.63
2019-05-21T00:33:43.252Z,95201.95
2019-05-21T00:37:09.697Z,95205.17
2019-05-21T00:40:34.067Z,95214.66
2019-05-21T00:43:04.542Z,95211.74
2019-05-21T00:45:34.999Z,95216.38
2019-05-21T00:48:05.925Z,95219.02
2019-05-21T00:50:36.520Z,95216.43
2019-05-21T00:53:06.991Z,95220.03
2019-05-21T00:55:37.449Z,95218.50
2019-05-21T00:58:07.853Z,95214.20
2019-05-21T01:00:38.399Z,95211.86
2019-05-21T01:03:08.734Z,95218.50
2019-05-21T01:05:39.237Z,95220.55
2019-05-21T01:08:09.721Z,95220.59
2019-05-21T01:10:40.103Z,95220.77
2019-05-21T01:13:10.583Z,95217.41
2019-05-21T01:15:40.981Z,95216.02
2019-05-21T01:18:11.439Z,95216.94
2019-05-21T01:20:41.942Z,95216.83
2019-05-21T01:23:12.362Z,95222.55
2019-05-21T01:25:42.793Z,95228.66
2019-05-21T01:28:13.222Z,95228.83
2019-05-21T01:30:43.786Z,95229.38
2019-05-21T01:33:14.397Z,95232.19
2019-05-21T01:35:44.851Z,95229.16
2019-05-21T01:38:15.312Z,95227.22
2019-05-21T01:40:45.779Z,95236.71
2019-05-21T01:43:16.237Z,95235.22
2019-05-21T01:45:46.731Z,95234.38
2019-05-21T01:48:17.212Z,95246.64
2019-05-21T01:50:47.625Z,95236.42
2019-05-21T01:53:18.106Z,95243.43
2019-05-21T01:55:48.560Z,95237.15
2019-05-21T01:58:19.148Z,95247.84
2019-05-21T02:00:49.715Z,95254.41
2019-05-21T02:03:20.241Z,95240.68
2019-05-21T02:05:51.066Z,95256.02
2019-05-21T02:08:21.487Z,95253.09
2019-05-21T02:10:51.982Z,95246.62
2019-05-21T02:13:22.383Z,95256.91
2019-05-21T02:15:52.919Z,95262.59
2019-05-21T02:18:23.431Z,95259.87
2019-05-21T02:20:53.823Z,95264.50
2019-05-21T02:23:24.240Z,95263.70
2019-05-21T02:25:54.690Z,95272.89
2019-05-21T02:28:25.181Z,95265.45
2019-05-21T02:30:56.713Z,95266.13
2019-05-21T02:33:27.535Z,95276.42
2019-05-21T02:35:58.059Z,95279.27
2019-05-21T02:38:28.532Z,95275.02
2019-05-21T02:40:59.195Z,95276.85
2019-05-21T02:43:30.159Z,95271.59
2019-05-21T02:46:00.624Z,95281.89
2019-05-21T02:48:31.074Z,95292.41
2019-05-21T02:51:01.536Z,95290.23
2019-05-21T02:53:34.619Z,95291.17
2019-05-21T02:56:04.036Z,95284.27
2019-05-21T02:58:34.534Z,95296.34
2019-05-21T03:01:27.077Z,95294.77
2019-05-21T03:03:57.618Z,95300.45
2019-05-21T03:06:27.946Z,95293.46
2019-05-21T03:08:58.545Z,95282.95
2019-05-21T03:11:29.058Z,95287.53
2019-05-21T03:13:59.431Z,95285.58
2019-05-21T03:16:29.902Z,95294.77
2019-05-21T03:19:00.455Z,95285.41
2019-05-21T03:21:31.046Z,95296.81
2019-05-21T03:24:01.534Z,95298.84
2019-05-21T03:26:31.978Z,95304.10
2019-05-21T03:29:02.443Z,95316.89
2019-05-21T03:31:33.108Z,95313.85
2019-05-21T03:34:03.575Z,95321.47
2019-05-21T03:36:34.433Z,95320.87
2019-05-21T03:39:06.076Z,95321.30
2019-05-21T03:41:36.604Z,95323.63
2019-05-21T03:44:07.001Z,95331.09
2019-05-21T03:46:37.414Z,95337.50
2019-05-21T03:49:07.833Z,95334.69
2019-05-21T03:51:38.318Z,95342.06
2019-05-21T03:54:08.706Z,95332.53
2019-05-21T03:56:39.190Z,95327.66
2019-05-21T03:59:09.575Z,95329.64
2019-05-21T04:01:40.034Z,95326.26
2019-05-21T04:04:10.494Z,95337.94
2019-05-21T04:06:51.424Z,95335.75
2019-05-21T04:09:13.154Z,95350.06
2019-05-21T04:11:43.648Z,95344.01
2019-05-21T04:14:30.130Z,95348.00
2019-05-21T04:17:07.509Z,95344.22
2019-05-21T04:19:39.400Z,95342.02
2019-05-21T04:22:16.622Z,95350.14
2019-05-21T04:24:47.184Z,95359.97
2019-05-21T04:27:17.568Z,95363.34
2019-05-21T04:29:48.067Z,95362.33
2019-05-21T04:32:18.506Z,95360.93
2019-05-21T04:34:48.987Z,95364.36
2019-05-21T04:37:19.345Z,95365.08
2019-05-21T04:39:49.740Z,95362.40
2019-05-21T04:42:20.135Z,95367.56
2019-05-21T04:44:50.588Z,95382.81
2019-05-21T04:47:21.057Z,95371.22
2019-05-21T04:49:51.560Z,95369.45
2019-05-21T04:52:21.927Z,95382.29
2019-05-21T04:54:52.266Z,95383.91
2019-05-21T04:57:22.715Z,95379.10
2019-05-21T04:59:53.090Z,95383.46
2019-05-21T05:02:23.603Z,95390.92
2019-05-21T05:04:54.106Z,95386.98
2019-05-21T05:07:28.254Z,95395.42
2019-05-21T05:09:56.785Z,95397.48
2019-05-21T05:12:27.295Z,95398.05
2019-05-21T05:14:57.797Z,95401.94
2019-05-21T05:17:28.292Z,95407.98
2019-05-21T05:19:58.844Z,95407.12
2019-05-21T05:22:29.387Z,95412.22
2019-05-21T05:24:59.895Z,95410.91
2019-05-21T05:27:30.333Z,95415.73
2019-05-21T05:30:00.749Z,95416.20
2019-05-21T05:32:31.205Z,95421.55
2019-05-21T05:35:01.948Z,95426.80
2019-05-21T05:37:43.307Z,95427.85
2019-05-21T05:40:05.006Z,95431.50
2019-05-21T05:42:35.473Z,95434.13
2019-05-21T05:45:06.585Z,95435.31
2019-05-21T05:47:37.015Z,95436.63
2019-05-21T05:50:09.748Z,95435.14
2019-05-21T05:52:40.129Z,95430.05
2019-05-21T05:55:10.723Z,95446.50
2019-05-21T05:57:41.458Z,95437.52
2019-05-21T06:00:14.035Z,95436.77
2019-05-21T06:02:44.439Z,95451.30
2019-05-21T06:05:16.403Z,95451.09
2019-05-21T06:07:58.819Z,95452.67
2019-05-21T06:10:20.389Z,95454.44
2019-05-21T06:12:50.788Z,95451.60
2019-05-21T06:15:22.514Z,95465.47
2019-05-21T06:17:53.045Z,95463.35
2019-05-21T06:20:23.555Z,95471.23
2019-05-21T06:22:53.918Z,95475.11
2019-05-21T06:25:24.553Z,95479.98
2019-05-21T06:27:54.990Z,95486.50
2019-05-21T06:30:25.491Z,95492.02
2019-05-21T06:32:55.941Z,95497.88
2019-05-21T06:35:26.478Z,95500.42
2019-05-21T06:37:56.922Z,95501.44
2019-05-21T06:40:27.310Z,95499.25
2019-05-21T06:42:57.857Z,95506.11
2019-05-21T06:45:28.265Z,95515.55
2019-05-21T06:47:58.795Z,95513.58
2019-05-21T06:50:29.263Z,95519.97
2019-05-21T06:52:59.739Z,95519.25
2019-05-21T06:55:30.207Z,95524.36
2019-05-21T06:58:00.697Z,95526.12
2019-05-21T07:00:31.263Z,95528.87
2019-05-21T07:03:01.784Z,95534.42
2019-05-21T07:05:32.159Z,95539.67
2019-05-21T07:08:02.600Z,95542.30
2019-05-21T07:10:33.040Z,95549.05
2019-05-21T07:13:03.383Z,95544.00
2019-05-21T07:15:33.832Z,95545.41
2019-05-21T07:18:04.302Z,95550.95
2019-05-21T07:20:34.729Z,95556.67
2019-05-21T07:23:05.316Z,95559.67
2019-05-21T07:25:36.027Z,95575.20
2019-05-21T07:28:06.446Z,95577.03
2019-05-21T07:30:37.019Z,95577.03
2019-05-21T07:33:07.821Z,95577.69
2019-05-21T07:35:38.247Z,95577.53
2019-05-21T07:38:08.688Z,95580.25
2019-05-21T07:40:39.291Z,95586.53
2019-05-21T07:43:09.705Z,95583.55
2019-05-21T07:45:40.173Z,95589.94
2019-05-21T07:48:10.676Z,95590.53
2019-05-21T07:50:41.221Z,95595.19
2019-05-21T07:53:12.418Z,95593.46
2019-05-21T07:55:42.826Z,95588.95
2019-05-21T07:58:13.318Z,95598.06
2019-05-21T08:00:43.730Z,95597.70
2019-05-21T08:03:14.278Z,95612.37
2019-05-21T08:05:44.749Z,95602.15
2019-05-21T08:08:15.218Z,95607.91
2019-05-21T08:10:45.672Z,95613.48
2019-05-21T08:13:16.114Z,95613.33
2019-05-21T08:15:46.552Z,95619.15
2019-05-21T08:18:17.071Z,95615.47
2019-05-21T08:20:47.499Z,95616.92
2019-05-21T08:23:18.898Z,95618.69
2019-05-21T08:25:49.366Z,95621.88
2019-05-21T08:28:19.823Z,95624.36
2019-05-21T08:30:50.291Z,95624.36
2019-05-21T08:33:20.860Z,95623.45
2019-05-21T08:35:51.354Z,95621.78
2019-05-21T08:38:21.766Z,95621.94
2019-05-21T08:40:52.310Z,95630.97
2019-05-21T08:43:22.685Z,95632.13
2019-05-21T08:45:53.088Z,95629.61
2019-05-21T08:48:23.511Z,95629.55
2019-05-21T08:50:53.990Z,95636.95
2019-05-21T08:53:24.369Z,95639.64
2019-05-21T08:55:54.799Z,95643.29
2019-05-21T08:58:25.284Z,95648.05
2019-05-21T09:00:55.617Z,95647.23
2019-05-21T09:03:26.051Z,95639.94
2019-05-21T09:05:56.601Z,95646.97
2019-05-21T09:08:26.972Z,95647.23
2019-05-21T09:10:57.328Z,95648.28
2019-05-21T09:13:27.918Z,95649.30
2019-05-21T09:15:58.406Z,95653.81
2019-05-21T09:18:29.067Z,95652.19
2019-05-21T09:20:59.498Z,95649.83
2019-05-21T09:23:29.929Z,95651.30
2019-05-21T09:26:00.348Z,95662.11
2019-05-21T09:28:30.837Z,95657.45
2019-05-21T09:31:02.062Z,95659.63
2019-05-21T09:33:32.841Z,95654.22
2019-05-21T09:36:03.266Z,95665.03
2019-05-21T09:38:33.776Z,95665.59
2019-05-21T09:41:04.248Z,95653.66
2019-05-21T09:43:34.631Z,95666.20
2019-05-21T09:46:05.199Z,95657.00
2019-05-21T09:48:35.632Z,95674.69
2019-05-21T09:51:06.077Z,95667.58
2019-05-21T09:53:36.483Z,95672.63
2019-05-21T09:56:24.436Z,95669.14
2019-05-21T09:58:56.777Z,95671.34
2019-05-21T10:01:33.858Z,95679.13
2019-05-21T10:04:04.368Z,95682.62
2019-05-21T10:06:34.815Z,95687.67
2019-05-21T10:09:09.771Z,95688.92
2019-05-21T10:11:40.221Z,95689.23
2019-05-21T10:14:10.546Z,95682.14
2019-05-21T10:16:40.944Z,95687.34
2019-05-21T10:19:12.578Z,95693.47
2019-05-21T10:21:42.910Z,95694.27
2019-05-21T10:24:13.263Z,95695.08
2019-05-21T10:26:43.651Z,95704.16
2019-05-21T10:29:14.091Z,95694.06
2019-05-21T10:31:44.402Z,95700.55
2019-05-21T10:34:15.033Z,95697.05
2019-05-21T10:36:45.417Z,95705.55
2019-05-21T10:39:16.367Z,95711.02
2019-05-21T10:41:46.879Z,95714.66
2019-05-21T10:44:17.384Z,95718.09
2019-05-21T10:46:47.801Z,95716.84
2019-05-21T10:49:18.263Z,95719.56
2019-05-21T10:51:48.728Z,95722.05
2019-05-21T10:54:19.115Z,95726.34
2019-05-21T10:56:49.628Z,95723.42
2019-05-21T10:59:20.060Z,95721.54
2019-05-21T11:02:15.847Z,95722.55
2019-05-21T11:04:59.938Z,95722.05
2019-05-21T11:07:30.467Z,95730.53
2019-05-21T11:10:00.915Z,95730.75
2019-05-21T11:12:31.407Z,95726.34
2019-05-21T11:15:01.823Z,95729.70
2019-05-21T11:17:48.035Z,95729.24
2019-05-21T11:20:05.132Z,95731.91
2019-05-21T11:22:35.562Z,95724.38
2019-05-21T11:25:06.265Z,95729.94
2019-05-21T11:27:36.744Z,95730.30
2019-05-21T11:30:08.652Z,95735.20
2019-05-21T11:32:39.334Z,95729.73
2019-05-21T11:35:10.036Z,95736.97
2019-05-21T11:37:40.413Z,95738.94
2019-05-21T11:40:12.344Z,95736.75
2019-05-21T11:42:42.825Z,95737.50
2019-05-21T11:45:13.326Z,95747.45
2019-05-21T11:47:43.907Z,95743.80
2019-05-21T11:50:16.275Z,95749.47
2019-05-21T11:52:46.747Z,95747.08
2019-05-21T11:55:17.142Z,95744.28
2019-05-21T11:57:47.551Z,95747.21
2019-05-21T12:00:21.617Z,95746.34
2019-05-21T12:02:52.257Z,95750.13
2019-05-21T12:05:22.655Z,95746.05
2019-05-21T12:07:53.084Z,95753.66
2019-05-21T12:10:23.523Z,95753.08
2019-05-21T12:12:54.007Z,95747.42
2019-05-21T12:15:24.491Z,95755.78
2019-05-21T12:17:54.999Z,95748.31
2019-05-21T12:20:35.949Z,95744.84
2019-05-21T12:22:57.732Z,95752.94
2019-05-21T12:25:28.240Z,95754.23
2019-05-21T12:27:58.682Z,95746.70
2019-05-21T12:30:29.194Z,95762.16
2019-05-21T12:32:59.531Z,95758.91
2019-05-21T12:35:29.847Z,95765.95
2019-05-21T12:38:00.367Z,95765.77
2019-05-21T12:40:30.804Z,95767.69
2019-05-21T12:43:01.133Z,95766.67
2019-05-21T12:45:31.466Z,95761.65
2019-05-21T12:48:01.920Z,95783.59
2019-05-21T12:50:32.403Z,95784.84
2019-05-21T12:53:02.960Z,95784.48
2019-05-21T12:55:33.385Z,95786.24
2019-05-21T12:58:03.898Z,95784.72
2019-05-21T13:00:35.758Z,95789.35
2019-05-21T13:03:06.171Z,95791.98
2019-05-21T13:05:36.564Z,95785.48
2019-05-21T13:08:07.025Z,95793.13
2019-05-21T13:10:37.532Z,95797.25
2019-05-21T13:13:08.443Z,95795.84
2019-05-21T13:15:38.844Z,95792.95
2019-05-21T13:18:09.342Z,95796.77
2019-05-21T13:20:39.739Z,95798.86
2019-05-21T13:23:10.216Z,95799.73
2019-05-21T13:25:41.619Z,95800.54
2019-05-21T13:28:12.076Z,95802.22
2019-05-21T13:30:42.629Z,95805.98
2019-05-21T13:33:13.006Z,95809.41
2019-05-21T13:35:43.453Z,95811.08
2019-05-21T13:38:26.529Z,95817.36
2019-05-21T13:40:57.802Z,95819.27
2019-05-21T13:43:28.247Z,95821.91
2019-05-21T13:45:58.686Z,95823.13
2019-05-21T13:48:29.153Z,95826.98
2019-05-21T13:50:59.660Z,95818.07
2019-05-21T13:53:30.104Z,95820.28
2019-05-21T13:56:00.552Z,95825.70
2019-05-21T13:58:30.997Z,95828.03
2019-05-21T14:01:02.152Z,95830.82
2019-05-21T14:03:32.856Z,95826.45
2019-05-21T14:06:03.486Z,95836.98
2019-05-21T14:08:33.938Z,95839.47
2019-05-21T14:11:04.379Z,95839.89
2019-05-21T14:13:34.902Z,95843.38
2019-05-21T14:16:05.414Z,95839.28
2019-05-21T14:18:36.660Z,95843.28
2019-05-21T14:21:07.196Z,95842.47
2019-05-21T14:23:37.771Z,95845.96
2019-05-21T14:26:08.283Z,95838.72
2019-05-21T14:28:38.687Z,95844.58
2019-05-21T14:31:09.075Z,95847.27
2019-05-21T14:33:39.401Z,95842.16
2019-05-21T14:36:09.970Z,95854.14
2019-05-21T14:38:40.422Z,95850.47
2019-05-21T14:41:10.787Z,95854.86
2019-05-21T14:43:41.579Z,95857.59
2019-05-21T14:46:11.946Z,95862.35
2019-05-21T14:48:42.266Z,95862.86
2019-05-21T14:51:13.634Z,95865.88
2019-05-21T14:53:44.261Z,95865.00
2019-05-21T14:56:14.705Z,95872.08
2019-05-21T14:58:45.264Z,95871.28
2019-05-21T15:01:15.674Z,95875.52
2019-05-21T15:03:46.197Z,95882.16
2019-05-21T15:06:16.717Z,95875.36
2019-05-21T15:08:47.113Z,95879.20
2019-05-21T15:11:17.587Z,95875.77
2019-05-21T15:13:48.047Z,95884.67
2019-05-21T15:16:18.603Z,95884.77
2019-05-21T15:18:49.104Z,95887.73
2019-05-21T15:21:24.248Z,95889.16
2019-05-21T15:23:54.949Z,95893.41
2019-05-21T15:26:25.435Z,95885.95
2019-05-21T15:28:55.956Z,95893.53
2019-05-21T15:31:26.471Z,95889.19
2019-05-21T15:33:56.914Z,95890.60
2019-05-21T15:36:27.802Z,95897.17
2019-05-21T15:38:58.339Z,95890.20
2019-05-21T15:41:28.778Z,95898.89
2019-05-21T15:43:59.180Z,95894.23
2019-05-21T15:46:45.488Z,95897.58
2019-05-21T15:49:01.839Z,95903.88
2019-05-21T15:51:32.306Z,95898.42
2019-05-21T15:54:02.776Z,95908.84
2019-05-21T15:56:33.171Z,95910.15
2019-05-21T15:59:03.608Z,95916.82
2019-05-21T16:01:34.248Z,95916.55
2019-05-21T16:04:04.711Z,95921.81
2019-05-21T16:06:35.014Z,95925.14
2019-05-21T16:09:07.375Z,95924.03
2019-05-21T16:11:37.927Z,95934.34
2019-05-21T16:14:08.251Z,95923.70
2019-05-21T16:16:38.644Z,95931.01
2019-05-21T16:19:09.026Z,95931.69
2019-05-21T16:21:39.508Z,95940.08
2019-05-21T16:24:09.999Z,95943.24
2019-05-21T16:26:40.462Z,95941.62
2019-05-21T16:29:12.106Z,95939.73
2019-05-21T16:31:42.547Z,95944.69
2019-05-21T16:34:12.996Z,95945.28
2019-05-21T16:36:43.514Z,95950.34
2019-05-21T16:39:14.958Z,95955.91
2019-05-21T16:41:45.679Z,95954.78
2019-05-21T16:44:16.175Z,95952.97
2019-05-21T16:46:46.657Z,95952.97
2019-05-21T16:49:16.987Z,95952.57
2019-05-21T16:51:47.351Z,95961.03
2019-05-21T16:54:17.772Z,95965.50
2019-05-21T16:56:48.282Z,95961.66
2019-05-21T16:59:18.678Z,95973.67
2019-05-21T17:01:49.134Z,95974.30
2019-05-21T17:04:19.884Z,95966.81
2019-05-21T17:06:50.489Z,95974.48
2019-05-21T17:09:20.844Z,95974.00
2019-05-21T17:11:59.500Z,95975.30
2019-05-21T17:14:24.280Z,95984.69
2019-05-21T17:16:54.677Z,95978.86
2019-05-21T17:19:25.248Z,95978.43
2019-05-21T17:21:55.637Z,95987.05
2019-05-21T17:24:26.296Z,95985.83
2019-05-21T17:26:56.765Z,95990.78
2019-05-21T17:29:27.284Z,95998.47
2019-05-21T17:31:57.751Z,95997.78
2019-05-21T17:34:28.089Z,96000.10
2019-05-21T17:36:58.466Z,95996.86
2019-05-21T17:39:28.945Z,96001.81
2019-05-21T17:42:14.351Z,95998.60
2019-05-21T17:44:31.518Z,95998.91
2019-05-21T17:47:01.871Z,95998.48
2019-05-21T17:49:32.755Z,96011.42
2019-05-21T17:52:03.312Z,96015.69
2019-05-21T17:54:33.829Z,96017.00
2019-05-21T17:57:04.299Z,96021.34
2019-05-21T17:59:34.815Z,96026.59
2019-05-21T18:02:08.042Z,96029.84
2019-05-21T18:04:38.634Z,96024.16
2019-05-21T18:07:10.500Z,96028.73
2019-05-21T18:09:41.199Z,96034.98
2019-05-21T18:12:12.446Z,96035.91
2019-05-21T18:14:43.746Z,96030.47
2019-05-21T18:17:16.427Z,96041.29
2019-05-21T18:19:49.311Z,96045.42
2019-05-21T18:22:22.300Z,96041.88
2019-05-21T18:24:53.310Z,96048.63
2019-05-21T18:27:24.059Z,96044.11
2019-05-21T18:29:54.692Z,96054.31
2019-05-21T18:32:25.302Z,96054.81
2019-05-21T18:34:55.782Z,96059.12
2019-05-21T18:37:26.240Z,96058.73
2019-05-21T18:39:56.683Z,96072.48
2019-05-21T18:42:27.095Z,96076.11
2019-05-21T18:44:57.657Z,96079.36
2019-05-21T18:47:28.142Z,96077.23
2019-05-21T18:49:58.605Z,96088.02
2019-05-21T18:52:28.946Z,96084.37
2019-05-21T18:54:59.438Z,96090.44
2019-05-21T18:57:29.962Z,96095.11
2019-05-21T19:00:00.436Z,96094.80
2019-05-21T19:02:30.946Z,96097.01
2019-05-21T19:05:01.304Z,96108.53
2019-05-21T19:07:31.768Z,96116.02
2019-05-21T19:10:02.210Z,96116.40
2019-05-21T19:12:37.885Z,96120.06
2019-05-21T19:15:05.059Z,96114.70
2019-05-21T19:17:36.091Z,96120.95
2019-05-21T19:20:07.878Z,96135.09
2019-05-21T19:22:38.549Z,96133.48
2019-05-21T19:25:09.221Z,96142.59
2019-05-21T19:27:39.950Z,96143.59
2019-05-21T19:30:11.128Z,96150.68
2019-05-21T19:32:41.699Z,96152.99
2019-05-21T19:35:12.319Z,96158.75
2019-05-21T19:37:42.831Z,96159.56
2019-05-21T19:40:13.847Z,96166.55
2019-05-21T19:42:54.286Z,96171.56
2019-05-21T19:45:17.591Z,96168.03
2019-05-21T19:47:48.068Z,96175.91
2019-05-21T19:50:18.909Z,96178.02
2019-05-21T19:52:49.312Z,96180.66
2019-05-21T19:55:20.135Z,96183.78
2019-05-21T19:57:50.564Z,96193.78
2019-05-21T20:00:24.189Z,96189.91
2019-05-21T20:02:54.708Z,96193.58
2019-05-21T20:05:25.393Z,96194.88
2019-05-21T20:07:55.784Z,96199.34
2019-05-21T20:10:26.634Z,96201.14
2019-05-21T20:12:56.936Z,96201.14
2019-05-21T20:15:27.677Z,96195.89
2019-05-21T20:18:07.021Z,96208.02
2019-05-21T20:20:31.044Z,96205.08
2019-05-21T20:23:02.897Z,96210.64
2019-05-21T20:25:34.832Z,96216.17
2019-05-21T20:28:10.667Z,96209.02
2019-05-21T20:30:40.032Z,96209.40
2019-05-21T20:33:11.968Z,96214.66
2019-05-21T20:35:43.019Z,96212.34
2019-05-21T20:38:14.120Z,96212.02
2019-05-21T20:40:44.562Z,96216.19
2019-05-21T20:43:15.017Z,96226.56
2019-05-21T20:45:47.281Z,96214.66
2019-05-21T20:48:19.379Z,96220.13
2019-05-21T20:50:50.178Z,96214.75
2019-05-21T20:53:20.843Z,96222.13
2019-05-21T20:55:51.843Z,96226.56
2019-05-21T20:58:22.207Z,96228.50
2019-05-21T21:00:56.912Z,96224.25
2019-05-21T21:03:27.476Z,96226.47
2019-05-21T21:05:58.172Z,96226.88
2019-05-21T21:08:30.508Z,96223.94
2019-05-21T21:11:01.068Z,96231.81
2019-05-21T21:13:31.815Z,96228.50
2019-05-21T21:16:02.619Z,96234.56
2019-05-21T21:18:34.434Z,96229.72
2019-05-21T21:21:04.960Z,96231.22
2019-05-21T21:23:36.526Z,96230.72
2019-05-21T21:26:08.169Z,96233.66
2019-05-21T21:28:38.738Z,96235.50
2019-05-21T21:31:09.229Z,96237.94
2019-05-21T21:33:39.789Z,96241.38
2019-05-21T21:36:10.277Z,96240.37
2019-05-21T21:38:40.614Z,96233.49
2019-05-21T21:41:11.206Z,96240.56
2019-05-21T21:43:41.917Z,96245.38
2019-05-21T21:46:12.573Z,96241.94
2019-05-21T21:48:45.543Z,96244.78
2019-05-21T21:51:17.610Z,96245.16
2019-05-21T21:53:48.900Z,96240.31
2019-05-21T21:56:19.965Z,96245.07
2019-05-21T21:58:50.381Z,96250.20
2019-05-21T22:01:49.280Z,96251.70
2019-05-21T22:04:26.812Z,96246.26
2019-05-21T22:06:57.838Z,96255.77
2019-05-21T22:09:31.370Z,96258.45
2019-05-21T22:12:03.616Z,96260.08
2019-05-21T22:14:49.711Z,96260.48
2019-05-21T22:17:09.725Z,96261.89
2019-05-21T22:19:41.114Z,96266.33
2019-05-21T22:22:12.610Z,96262.30
2019-05-21T22:24:43.613Z,96263.02
2019-05-21T22:27:14.439Z,96261.67
2019-05-21T22:29:44.908Z,96258.73
2019-05-21T22:32:16.722Z,96260.86
2019-05-21T22:34:47.338Z,96260.80
2019-05-21T22:37:22.322Z,96264.80
2019-05-21T22:39:53.525Z,96257.23
2019-05-21T22:42:24.462Z,96261.77
2019-05-21T22:45:07.327Z,96258.64
2019-05-21T22:47:28.345Z,96260.64
2019-05-21T22:49:58.902Z,96267.73
2019-05-21T22:52:29.420Z,96268.42
2019-05-21T22:54:59.895Z,96277.02
2019-05-21T22:57:30.194Z,96272.14
2019-05-21T23:00:00.686Z,96273.14
2019-05-21T23:02:33.673Z,96277.83
2019-05-21T23:05:04.275Z,96277.02
2019-05-21T23:07:34.855Z,96276.77
2019-05-21T23:10:05.958Z,96272.83
2019-05-21T23:12:37.034Z,96276.27
2019-05-21T23:15:22.211Z,96277.08
2019-05-21T23:17:40.373Z,96279.11
2019-05-21T23:20:13.417Z,96276.08
2019-05-21T23:22:45.159Z,96280.20
2019-05-21T23:25:17.147Z,96283.64
2019-05-21T23:27:48.772Z,96278.61
2019-05-21T23:30:19.595Z,96281.73
2019-05-21T23:32:50.827Z,96281.42
2019-05-21T23:35:22.133Z,96280.42
2019-05-21T23:37:53.583Z,96281.33
2019-05-21T23:40:25.906Z,96283.64
2019-05-21T23:42:56.553Z,96276.48
2019-05-21T23:45:27.080Z,96279.39
2019-05-21T23:47:57.629Z,96280.80
2019-05-21T23:50:29.098Z,96283.23
2019-05-21T23:53:00.455Z,96284.42
2019-05-21T23:55:31.041Z,96280.61
2019-05-21T23:58:01.594Z,96278.98
